createdAt,value
2022-08-30T00:01:00.747Z,102264.56
2022-08-30T00:03:27.500Z,102263.06
2022-08-30T00:05:56.379Z,102263.59
2022-08-30T00:08:23.088Z,102261.91
2022-08-30T00:10:51.147Z,102262.91
2022-08-30T00:13:18.743Z,102261.13
2022-08-30T00:15:45.391Z,102256.75
2022-08-30T00:18:12.003Z,102259.44
2022-08-30T00:20:38.681Z,102261.25
2022-08-30T00:23:05.760Z,102252.59
2022-08-30T00:25:32.343Z,102265.75
2022-08-30T00:27:58.917Z,102265.06
2022-08-30T00:30:25.433Z,102273.94
2022-08-30T00:32:51.957Z,102271.56
2022-08-30T00:35:20.509Z,102269.22
2022-08-30T00:37:47.666Z,102266.56
2022-08-30T00:40:15.932Z,102278.88
2022-08-30T00:42:44.131Z,102273.25
2022-08-30T00:45:22.591Z,102268.56
2022-08-30T00:47:49.230Z,102268.06
2022-08-30T00:50:19.500Z,102267.22
2022-08-30T00:52:48.243Z,102268.91
2022-08-30T00:55:16.908Z,102271.03
2022-08-30T00:57:44.406Z,102278.72
2022-08-30T01:00:12.065Z,102279.56
2022-08-30T01:02:38.747Z,102278.88
2022-08-30T01:05:06.995Z,102279.91
2022-08-30T01:07:35.097Z,102272.72
2022-08-30T01:10:02.605Z,102274.56
2022-08-30T01:12:30.010Z,102282.91
2022-08-30T01:14:57.528Z,102282.06
2022-08-30T01:17:25.131Z,102282.56
2022-08-30T01:19:56.164Z,102280.56
2022-08-30T01:22:32.444Z,102277.41
2022-08-30T01:25:00.189Z,102290.56
2022-08-30T01:27:27.858Z,102285.25
2022-08-30T01:29:54.710Z,102281.59
2022-08-30T01:32:29.033Z,102285.75
2022-08-30T01:34:56.871Z,102286.59
2022-08-30T01:37:31.972Z,102281.44
2022-08-30T01:39:59.183Z,102288.44
2022-08-30T01:42:25.884Z,102287.75
2022-08-30T01:44:54.547Z,102287.59
2022-08-30T01:47:21.302Z,102290.25
2022-08-30T01:49:48.210Z,102291.91
2022-08-30T01:52:15.819Z,102295.25
2022-08-30T01:54:44.613Z,102292.44
2022-08-30T01:57:14.219Z,102296.09
2022-08-30T01:59:43.396Z,102298.59
2022-08-30T02:02:10.242Z,102297.44
2022-08-30T02:04:36.816Z,102292.59
2022-08-30T02:07:04.419Z,102292.28
2022-08-30T02:09:30.935Z,102291.28
2022-08-30T02:11:57.897Z,102290.59
2022-08-30T02:14:24.406Z,102294.97
2022-08-30T02:16:51.070Z,102295.63
2022-08-30T02:19:18.014Z,102305.66
2022-08-30T02:21:44.689Z,102307.34
2022-08-30T02:24:11.196Z,102308.84
2022-08-30T02:26:37.798Z,102297.50
2022-08-30T02:29:05.833Z,102296.50
2022-08-30T02:31:32.496Z,102295.50
2022-08-30T02:33:59.005Z,102299.50
2022-08-30T02:36:25.499Z,102291.31
2022-08-30T02:38:52.470Z,102288.34
2022-08-30T02:41:19.806Z,102288.34
2022-08-30T02:43:46.748Z,102291.00
2022-08-30T02:46:13.306Z,102294.34
2022-08-30T02:48:39.980Z,102301.69
2022-08-30T02:51:09.638Z,102296.50
2022-08-30T02:53:38.083Z,102294.66
2022-08-30T02:56:04.818Z,102294.00
2022-08-30T02:58:31.324Z,102285.84
2022-08-30T03:00:57.932Z,102285.84
2022-08-30T03:03:24.801Z,102286.66
2022-08-30T03:05:51.333Z,102285.84
2022-08-30T03:08:17.892Z,102279.97
2022-08-30T03:10:44.417Z,102286.16
2022-08-30T03:13:11.722Z,102281.66
2022-08-30T03:15:39.356Z,102283.31
2022-08-30T03:18:06.314Z,102284.34
2022-08-30T03:20:35.081Z,102281.97
2022-08-30T03:23:02.110Z,102278.00
2022-08-30T03:25:29.207Z,102282.31
2022-08-30T03:27:55.698Z,102275.81
2022-08-30T03:30:22.205Z,102280.66
2022-08-30T03:32:48.806Z,102276.81
2022-08-30T03:35:18.174Z,102274.13
2022-08-30T03:37:46.103Z,102285.28
2022-08-30T03:40:14.699Z,102272.94
2022-08-30T03:42:43.320Z,102276.94
2022-08-30T03:45:11.519Z,102275.59
2022-08-30T03:47:38.032Z,102271.25
2022-08-30T03:50:08.212Z,102277.91
2022-08-30T03:52:34.775Z,102270.94
2022-08-30T03:55:01.367Z,102270.09
2022-08-30T03:57:28.638Z,102271.25
2022-08-30T03:59:55.181Z,102274.06
2022-08-30T04:02:21.759Z,102273.56
2022-08-30T04:04:48.648Z,102275.72
2022-08-30T04:07:15.138Z,102279.41
2022-08-30T04:09:41.872Z,102275.88
2022-08-30T04:12:08.435Z,102277.56
2022-08-30T04:14:34.939Z,102283.06
2022-08-30T04:17:01.495Z,102288.88
2022-08-30T04:19:27.995Z,102290.56
2022-08-30T04:21:57.233Z,102288.03
2022-08-30T04:24:23.793Z,102274.03
2022-08-30T04:26:50.288Z,102275.19
2022-08-30T04:29:17.685Z,102277.72
2022-08-30T04:31:45.270Z,102281.34
2022-08-30T04:34:12.834Z,102275.88
2022-08-30T04:36:39.345Z,102282.53
2022-08-30T04:39:06.260Z,102273.69
2022-08-30T04:41:32.921Z,102276.22
2022-08-30T04:44:03.466Z,102282.19
2022-08-30T04:46:30.397Z,102282.22
2022-08-30T04:48:56.906Z,102282.91
2022-08-30T04:51:23.395Z,102284.06
2022-08-30T04:53:50.007Z,102292.06
2022-08-30T04:56:22.196Z,102296.75
2022-08-30T04:58:50.433Z,102293.91
2022-08-30T05:01:20.493Z,102296.91
2022-08-30T05:03:51.020Z,102313.94
2022-08-30T05:06:17.662Z,102313.28
2022-08-30T05:08:46.342Z,102309.81
2022-08-30T05:11:14.760Z,102314.19
2022-08-30T05:13:41.449Z,102318.69
2022-08-30T05:16:08.367Z,102312.53
2022-08-30T05:18:35.677Z,102319.69
2022-08-30T05:21:05.018Z,102313.84
2022-08-30T05:23:31.748Z,102317.34
2022-08-30T05:25:58.274Z,102316.69
2022-08-30T05:28:26.319Z,102324.97
2022-08-30T05:30:52.989Z,102320.94
2022-08-30T05:33:19.581Z,102319.59
2022-08-30T05:35:46.137Z,102320.56
2022-08-30T05:38:12.657Z,102329.00
2022-08-30T05:40:43.951Z,102332.19
2022-08-30T05:43:11.285Z,102330.94
2022-08-30T05:45:38.390Z,102329.19
2022-08-30T05:48:05.019Z,102337.72
2022-08-30T05:50:31.547Z,102336.41
2022-08-30T05:52:58.041Z,102330.81
2022-08-30T05:55:24.539Z,102323.19
2022-08-30T05:57:51.067Z,102326.09
2022-08-30T06:00:18.164Z,102332.03
2022-08-30T06:02:44.747Z,102333.88
2022-08-30T06:05:13.054Z,102331.44
2022-08-30T06:07:40.897Z,102330.06
2022-08-30T06:10:07.457Z,102323.03
2022-08-30T06:12:34.102Z,102331.97
2022-08-30T06:15:00.643Z,102340.19
2022-08-30T06:17:27.199Z,102343.28
2022-08-30T06:19:53.686Z,102349.41
2022-08-30T06:22:20.176Z,102347.69
2022-08-30T06:25:01.909Z,102351.41
2022-08-30T06:27:28.459Z,102354.03
2022-08-30T06:29:54.966Z,102361.19
2022-08-30T06:32:21.879Z,102355.91
2022-08-30T06:34:48.479Z,102357.94
2022-08-30T06:37:29.033Z,102367.31
2022-08-30T06:39:57.911Z,102364.56
2022-08-30T06:42:30.452Z,102372.44
2022-08-30T06:45:00.551Z,102369.03
2022-08-30T06:47:28.448Z,102365.97
2022-08-30T06:49:55.016Z,102373.47
2022-08-30T06:52:21.582Z,102355.69
2022-08-30T06:54:48.097Z,102350.06
2022-08-30T06:57:14.613Z,102350.66
2022-08-30T06:59:41.140Z,102344.25
2022-08-30T07:02:08.349Z,102348.22
2022-08-30T07:04:35.066Z,102348.66
2022-08-30T07:07:01.604Z,102353.19
2022-08-30T07:09:28.135Z,102363.38
2022-08-30T07:11:55.291Z,102365.59
2022-08-30T07:14:22.213Z,102365.00
2022-08-30T07:16:50.920Z,102370.19
2022-08-30T07:19:20.556Z,102366.03
2022-08-30T07:21:48.891Z,102373.09
2022-08-30T07:24:16.322Z,102366.88
2022-08-30T07:26:47.140Z,102370.84
2022-08-30T07:29:13.648Z,102381.78
2022-08-30T07:31:40.473Z,102381.59
2022-08-30T07:34:07.747Z,102386.97
2022-08-30T07:36:35.807Z,102393.00
2022-08-30T07:39:02.878Z,102393.81
2022-08-30T07:41:35.586Z,102390.31
2022-08-30T07:44:02.335Z,102400.31
2022-08-30T07:46:28.955Z,102398.94
2022-08-30T07:48:55.887Z,102405.84
2022-08-30T07:51:24.683Z,102405.13
2022-08-30T07:53:51.539Z,102400.44
2022-08-30T07:56:18.353Z,102396.56
2022-08-30T07:58:44.835Z,102396.53
2022-08-30T08:01:12.870Z,102383.66
2022-08-30T08:03:40.684Z,102386.59
2022-08-30T08:06:08.785Z,102393.81
2022-08-30T08:08:36.458Z,102409.22
2022-08-30T08:11:10.690Z,102403.41
2022-08-30T08:13:53.605Z,102417.75
2022-08-30T08:16:25.829Z,102414.81
2022-08-30T08:18:53.308Z,102415.84
2022-08-30T08:21:20.357Z,102408.59
2022-08-30T08:23:46.968Z,102417.91
2022-08-30T08:26:13.608Z,102424.56
2022-08-30T08:28:40.106Z,102423.91
2022-08-30T08:31:17.739Z,102417.94
2022-08-30T08:33:44.515Z,102408.16
2022-08-30T08:36:11.039Z,102416.22
2022-08-30T08:38:37.849Z,102412.47
2022-08-30T08:41:23.058Z,102419.50
2022-08-30T08:43:49.580Z,102421.63
2022-08-30T08:46:52.444Z,102407.28
2022-08-30T08:49:18.956Z,102414.13
2022-08-30T08:52:04.060Z,102414.50
2022-08-30T08:54:47.269Z,102431.09
2022-08-30T08:57:16.560Z,102441.00
2022-08-30T08:59:44.924Z,102443.94
2022-08-30T09:02:37.792Z,102458.03
2022-08-30T09:05:04.639Z,102440.63
2022-08-30T09:07:37.510Z,102433.34
2022-08-30T09:10:04.506Z,102436.72
2022-08-30T09:12:31.012Z,102433.81
2022-08-30T09:15:25.115Z,102427.25
2022-08-30T09:18:01.888Z,102440.97
2022-08-30T09:20:47.110Z,102440.41
2022-08-30T09:23:20.768Z,102435.97
2022-08-30T09:26:03.861Z,102438.22
2022-08-30T09:28:34.147Z,102439.25
2022-08-30T09:31:17.484Z,102441.00
2022-08-30T09:34:08.216Z,102416.25
2022-08-30T09:36:44.514Z,102419.50
2022-08-30T09:39:27.592Z,102412.16
2022-08-30T09:41:54.969Z,102427.38
2022-08-30T09:44:23.283Z,102402.13
2022-08-30T09:46:51.287Z,102408.44
2022-08-30T09:49:41.329Z,102423.94
2022-08-30T09:52:12.529Z,102400.84
2022-08-30T09:54:49.244Z,102384.75
2022-08-30T09:57:33.833Z,102395.94
2022-08-30T10:00:23.535Z,102395.03
2022-08-30T10:03:04.351Z,102389.66
2022-08-30T10:05:45.565Z,102392.19
2022-08-30T10:08:19.755Z,102379.94
2022-08-30T10:10:56.387Z,102398.44
2022-08-30T10:13:33.793Z,102411.69
2022-08-30T10:16:25.237Z,102400.91
2022-08-30T10:19:11.091Z,102413.38
2022-08-30T10:21:59.354Z,102414.00
2022-08-30T10:24:36.255Z,102413.97
2022-08-30T10:27:07.810Z,102406.72
2022-08-30T10:29:42.511Z,102422.06
2022-08-30T10:32:24.723Z,102411.88
2022-08-30T10:35:14.307Z,102413.16
2022-08-30T10:37:51.457Z,102414.81
2022-08-30T10:40:46.083Z,102417.94
2022-08-30T10:43:31.770Z,102416.88
2022-08-30T10:46:02.609Z,102416.63
2022-08-30T10:48:35.685Z,102414.63
2022-08-30T10:51:28.054Z,102411.28
2022-08-30T10:53:57.897Z,102421.47
2022-08-30T10:56:26.211Z,102421.47
2022-08-30T10:58:54.439Z,102423.75
2022-08-30T11:01:53.170Z,102409.63
2022-08-30T11:04:51.940Z,102414.84
2022-08-30T11:07:52.135Z,102414.72
2022-08-30T11:10:32.258Z,102403.09
2022-08-30T11:13:13.280Z,102400.69
2022-08-30T11:15:59.951Z,102415.81
2022-08-30T11:18:29.827Z,102391.59
2022-08-30T11:21:21.375Z,102412.81
2022-08-30T11:24:02.670Z,102407.53
2022-08-30T11:26:50.604Z,102390.44
2022-08-30T11:29:26.075Z,102373.13
2022-08-30T11:31:53.819Z,102356.38
2022-08-30T11:34:48.599Z,102362.41
2022-08-30T11:37:43.108Z,102357.41
2022-08-30T11:40:44.317Z,102352.16
2022-08-30T11:43:36.850Z,102375.25
2022-08-30T11:46:28.510Z,102377.25
2022-08-30T11:49:10.035Z,102356.72
2022-08-30T11:52:27.211Z,102349.34
2022-08-30T11:55:20.872Z,102345.22
2022-08-30T11:58:13.088Z,102319.19
2022-08-30T12:00:51.338Z,102349.81
2022-08-30T12:03:22.356Z,102356.34
2022-08-30T12:06:16.503Z,102347.31
2022-08-30T12:08:48.115Z,102348.22
2022-08-30T12:11:18.878Z,102357.72
2022-08-30T12:13:45.251Z,102320.81
2022-08-30T12:16:14.894Z,102356.75
2022-08-30T12:18:52.889Z,102340.63
2022-08-30T12:21:21.539Z,102359.25
2022-08-30T12:23:53.702Z,102345.50
2022-08-30T12:26:26.099Z,102331.59
2022-08-30T12:29:07.687Z,102331.31
2022-08-30T12:31:49.214Z,102333.19
2022-08-30T12:34:21.547Z,102350.66
2022-08-30T12:37:04.542Z,102325.78
2022-08-30T12:39:43.394Z,102329.34
2022-08-30T12:42:23.443Z,102349.88
2022-08-30T12:44:57.768Z,102316.19
2022-08-30T12:47:33.194Z,102305.88
2022-08-30T12:50:00.188Z,102312.94
2022-08-30T12:52:26.616Z,102340.63
2022-08-30T12:54:54.735Z,102320.31
2022-08-30T12:57:39.529Z,102325.78
2022-08-30T13:00:09.430Z,102290.22
2022-08-30T13:02:53.608Z,102307.16
2022-08-30T13:05:45.515Z,102316.66
2022-08-30T13:08:18.613Z,102323.47
2022-08-30T13:11:01.441Z,102291.56
2022-08-30T13:13:43.601Z,102293.56
2022-08-30T13:16:20.572Z,102305.53
2022-08-30T13:19:16.497Z,102301.44
2022-08-30T13:21:54.622Z,102325.34
2022-08-30T13:24:25.195Z,102294.81
2022-08-30T13:26:54.277Z,102303.13
2022-08-30T13:29:25.960Z,102303.59
2022-08-30T13:31:52.664Z,102304.59
2022-08-30T13:34:22.411Z,102293.81
2022-08-30T13:36:53.199Z,102300.28
2022-08-30T13:39:21.843Z,102324.44
2022-08-30T13:41:48.772Z,102271.78
2022-08-30T13:44:15.905Z,102292.13
2022-08-30T13:46:51.060Z,102286.22
2022-08-30T13:49:46.887Z,102302.09
2022-08-30T13:52:21.761Z,102297.44
2022-08-30T13:54:53.235Z,102316.97
2022-08-30T14:00:14.506Z,102272.97
2022-08-30T14:02:46.450Z,102264.41
2022-08-30T14:05:37.573Z,102277.63
2022-08-30T14:08:05.958Z,102308.03
2022-08-30T14:10:33.217Z,102279.53
2022-08-30T14:13:08.766Z,102295.38
2022-08-30T14:15:38.908Z,102264.13
2022-08-30T14:18:06.480Z,102288.09
2022-08-30T14:20:33.278Z,102258.91
2022-08-30T14:22:59.771Z,102263.56
2022-08-30T14:25:28.564Z,102273.59
2022-08-30T14:27:58.382Z,102272.53
2022-08-30T14:30:25.191Z,102264.59
2022-08-30T14:32:51.851Z,102273.44
2022-08-30T14:35:20.310Z,102283.00
2022-08-30T14:37:48.223Z,102266.03
2022-08-30T14:40:15.475Z,102231.38
2022-08-30T14:42:42.188Z,102230.50
2022-08-30T14:45:09.678Z,102279.31
2022-08-30T14:47:36.195Z,102267.53
2022-08-30T14:50:02.881Z,102281.78
2022-08-30T14:52:29.656Z,102270.88
2022-08-30T14:55:03.727Z,102279.09
2022-08-30T14:57:32.702Z,102271.41
2022-08-30T14:59:59.678Z,102273.72
2022-08-30T15:02:27.154Z,102252.84
2022-08-30T15:04:53.779Z,102263.81
2022-08-30T15:07:20.267Z,102270.28
2022-08-30T15:09:46.839Z,102259.44
2022-08-30T15:12:13.474Z,102252.06
2022-08-30T15:14:40.199Z,102245.59
2022-08-30T15:17:06.712Z,102290.72
2022-08-30T15:19:33.544Z,102268.03
2022-08-30T15:22:05.372Z,102285.53
2022-08-30T15:24:32.427Z,102264.66
2022-08-30T15:27:00.119Z,102286.50
2022-08-30T15:29:27.498Z,102266.94
2022-08-30T15:31:57.327Z,102293.47
2022-08-30T15:34:26.241Z,102267.34
2022-08-30T15:36:54.739Z,102298.69
2022-08-30T15:39:21.253Z,102269.94
2022-08-30T15:41:56.065Z,102289.72
2022-08-30T15:44:23.750Z,102295.94
2022-08-30T15:46:50.487Z,102298.28
2022-08-30T15:49:20.150Z,102252.91
2022-08-30T15:51:49.028Z,102279.78
2022-08-30T15:54:20.607Z,102263.00
2022-08-30T15:56:48.144Z,102284.97
2022-08-30T15:59:15.364Z,102279.25
2022-08-30T16:01:43.098Z,102297.81
2022-08-30T16:04:10.711Z,102256.81
2022-08-30T16:06:37.765Z,102267.84
2022-08-30T16:09:06.934Z,102264.47
2022-08-30T16:11:34.170Z,102279.13
2022-08-30T16:14:01.473Z,102289.84
2022-08-30T16:16:28.220Z,102296.84
2022-08-30T16:18:55.335Z,102306.47
2022-08-30T16:21:28.176Z,102307.81
2022-08-30T16:23:59.593Z,102291.97
2022-08-30T16:26:27.953Z,102316.69
2022-08-30T16:28:54.704Z,102313.94
2022-08-30T16:31:21.843Z,102273.16
2022-08-30T16:33:52.414Z,102311.56
2022-08-30T16:36:20.525Z,102304.28
2022-08-30T16:38:47.763Z,102315.56
2022-08-30T16:41:21.069Z,102318.59
2022-08-30T16:43:49.425Z,102302.56
2022-08-30T16:46:17.395Z,102297.97
2022-08-30T16:48:45.166Z,102301.25
2022-08-30T16:51:14.737Z,102313.81
2022-08-30T16:53:42.337Z,102306.47
2022-08-30T16:56:12.754Z,102303.56
2022-08-30T16:58:40.023Z,102304.63
2022-08-30T17:01:06.635Z,102317.13
2022-08-30T17:03:33.506Z,102321.56
2022-08-30T17:06:00.353Z,102333.50
2022-08-30T17:08:26.890Z,102327.56
2022-08-30T17:10:53.544Z,102338.19
2022-08-30T17:13:20.277Z,102345.50
2022-08-30T17:15:47.979Z,102342.53
2022-08-30T17:18:17.200Z,102344.28
2022-08-30T17:20:45.307Z,102346.06
2022-08-30T17:23:12.147Z,102331.78
2022-08-30T17:25:39.118Z,102353.59
2022-08-30T17:28:07.980Z,102354.91
2022-08-30T17:30:35.116Z,102357.50
2022-08-30T17:33:01.868Z,102357.78
2022-08-30T17:35:28.660Z,102379.69
2022-08-30T17:37:55.165Z,102370.06
2022-08-30T17:40:22.067Z,102368.38
2022-08-30T17:42:48.627Z,102377.50
2022-08-30T17:45:17.125Z,102377.56
2022-08-30T17:47:44.218Z,102382.38
2022-08-30T17:50:11.346Z,102381.16
2022-08-30T17:52:38.477Z,102384.75
2022-08-30T17:55:06.858Z,102387.84
2022-08-30T17:57:33.637Z,102387.88
2022-08-30T18:00:00.769Z,102375.59
2022-08-30T18:02:29.653Z,102393.59
2022-08-30T18:04:58.131Z,102406.28
2022-08-30T18:07:25.726Z,102406.13
2022-08-30T18:09:53.624Z,102402.97
2022-08-30T18:12:20.980Z,102397.56
2022-08-30T18:14:47.516Z,102411.25
2022-08-30T18:17:19.681Z,102421.38
2022-08-30T18:19:46.842Z,102429.44
2022-08-30T18:22:14.060Z,102424.03
2022-08-30T18:24:40.650Z,102432.63
2022-08-30T18:27:07.227Z,102423.06
2022-08-30T18:29:33.868Z,102427.31
2022-08-30T18:32:01.446Z,102447.59
2022-08-30T18:34:28.305Z,102442.38
2022-08-30T18:36:55.506Z,102442.34
2022-08-30T18:39:22.179Z,102444.97
2022-08-30T18:41:49.337Z,102444.69
2022-08-30T18:44:27.852Z,102453.16
2022-08-30T18:46:57.241Z,102446.25
2022-08-30T18:49:25.180Z,102454.88
2022-08-30T18:51:51.724Z,102452.53
2022-08-30T18:54:18.725Z,102458.44
2022-08-30T18:56:45.430Z,102462.94
2022-08-30T18:59:12.541Z,102465.28
2022-08-30T19:01:39.079Z,102461.50
2022-08-30T19:04:07.090Z,102462.94
2022-08-30T19:06:34.445Z,102461.25
2022-08-30T19:09:00.997Z,102464.72
2022-08-30T19:11:27.919Z,102461.13
2022-08-30T19:13:54.983Z,102466.84
2022-08-30T19:16:21.928Z,102467.63
2022-08-30T19:18:48.803Z,102459.50
2022-08-30T19:21:15.417Z,102457.75
2022-08-30T19:23:43.514Z,102455.72
2022-08-30T19:26:10.765Z,102451.09
2022-08-30T19:28:37.746Z,102452.69
2022-08-30T19:31:04.710Z,102459.09
2022-08-30T19:33:35.685Z,102454.28
2022-08-30T19:36:05.120Z,102456.59
2022-08-30T19:38:31.728Z,102464.00
2022-08-30T19:41:01.887Z,102467.75
2022-08-30T19:43:30.706Z,102472.31
2022-08-30T19:46:00.663Z,102467.41
2022-08-30T19:48:32.721Z,102475.41
2022-08-30T19:51:06.498Z,102477.94
2022-08-30T19:53:33.485Z,102471.72
2022-08-30T19:56:00.167Z,102462.78
2022-08-30T19:58:26.867Z,102462.25
2022-08-30T20:01:00.853Z,102459.84
2022-08-30T20:03:38.073Z,102461.69
2022-08-30T20:06:06.940Z,102466.31
2022-08-30T20:08:33.503Z,102459.38
2022-08-30T20:11:00.009Z,102464.09
2022-08-30T20:13:26.750Z,102457.94
2022-08-30T20:15:55.942Z,102458.00
2022-08-30T20:18:25.879Z,102455.16
2022-08-30T20:20:53.239Z,102459.38
2022-08-30T20:23:23.298Z,102459.38
2022-08-30T20:25:52.321Z,102460.47
2022-08-30T20:28:20.505Z,102463.97
2022-08-30T20:30:48.095Z,102464.16
2022-08-30T20:33:14.630Z,102468.56
2022-08-30T20:35:48.335Z,102469.19
2022-08-30T20:38:21.150Z,102483.63
2022-08-30T20:40:51.146Z,102467.56
2022-08-30T20:43:20.107Z,102482.94
2022-08-30T20:45:47.434Z,102491.47
2022-08-30T20:48:14.631Z,102494.00
2022-08-30T20:50:41.615Z,102482.19
2022-08-30T20:53:08.659Z,102478.97
2022-08-30T20:55:35.335Z,102484.47
2022-08-30T20:58:01.822Z,102489.88
2022-08-30T21:00:28.361Z,102495.56
2022-08-30T21:02:54.920Z,102496.19
2022-08-30T21:05:21.604Z,102497.94
2022-08-30T21:07:48.151Z,102492.91
2022-08-30T21:10:14.995Z,102487.59
2022-08-30T21:12:42.725Z,102486.13
2022-08-30T21:15:26.951Z,102485.72
2022-08-30T21:17:56.179Z,102479.16
2022-08-30T21:20:23.322Z,102477.69
2022-08-30T21:22:49.891Z,102483.50
2022-08-30T21:25:16.397Z,102480.66
2022-08-30T21:27:43.701Z,102483.75
2022-08-30T21:30:12.439Z,102484.88
2022-08-30T21:32:41.957Z,102493.31
2022-08-30T21:35:27.959Z,102493.75
2022-08-30T21:37:54.627Z,102484.25
2022-08-30T21:40:21.578Z,102481.69
2022-08-30T21:42:48.316Z,102480.69
2022-08-30T21:45:15.295Z,102476.31
2022-08-30T21:47:42.358Z,102476.69
2022-08-30T21:50:09.814Z,102479.53
2022-08-30T21:52:36.347Z,102484.72
2022-08-30T21:55:03.766Z,102483.09
2022-08-30T21:57:31.165Z,102484.09
2022-08-30T21:59:57.738Z,102487.81
2022-08-30T22:02:24.287Z,102479.13
2022-08-30T22:04:50.831Z,102482.78
2022-08-30T22:07:17.326Z,102481.13
2022-08-30T22:09:44.079Z,102486.84
2022-08-30T22:12:10.708Z,102474.44
2022-08-30T22:14:37.785Z,102488.19
2022-08-30T22:17:05.442Z,102484.16
2022-08-30T22:19:33.704Z,102484.16
2022-08-30T22:22:00.640Z,102487.34
2022-08-30T22:24:29.293Z,102478.69
2022-08-30T22:26:59.071Z,102480.38
2022-08-30T22:29:25.577Z,102479.56
2022-08-30T22:31:52.199Z,102486.25
2022-08-30T22:34:18.745Z,102485.38
2022-08-30T22:36:45.689Z,102490.59
2022-08-30T22:39:13.258Z,102489.13
2022-08-30T22:41:42.859Z,102489.25
2022-08-30T22:44:09.725Z,102486.09
2022-08-30T22:46:37.780Z,102489.09
2022-08-30T22:49:05.914Z,102488.25
2022-08-30T22:51:33.571Z,102486.59
2022-08-30T22:54:01.165Z,102485.09
2022-08-30T22:56:28.400Z,102485.91
2022-08-30T22:58:55.662Z,102487.75
2022-08-30T23:01:26.742Z,102483.25
2022-08-30T23:03:57.291Z,102479.06
2022-08-30T23:06:23.935Z,102484.59
2022-08-30T23:08:50.507Z,102485.25
2022-08-30T23:11:17.682Z,102480.44
2022-08-30T23:13:44.741Z,102490.13
2022-08-30T23:16:13.033Z,102482.41
2022-08-30T23:18:41.115Z,102488.09
2022-08-30T23:21:15.919Z,102487.38
2022-08-30T23:24:01.456Z,102487.31
2022-08-30T23:26:46.399Z,102495.53
2022-08-30T23:29:31.789Z,102502.84
2022-08-30T23:32:16.929Z,102512.00
2022-08-30T23:35:02.301Z,102514.38
2022-08-30T23:37:47.295Z,102513.13
2022-08-30T23:40:37.964Z,102512.31
2022-08-30T23:43:23.281Z,102516.00
2022-08-30T23:46:08.473Z,102505.69
2022-08-30T23:48:53.707Z,102517.19
2022-08-30T23:51:38.953Z,102513.16
2022-08-30T23:54:23.939Z,102506.84
2022-08-30T23:57:09.551Z,102503.69
2022-08-30T23:59:54.640Z,102511.75
